sensor_id;sensor_type;location;lat;lon;timestamp;pressure;altitude;pressure_sealevel;temperature;humidity
50349;BME280;36250;48.740;22.174;2023-04-12T00:02:11;99565.41;;;10.33;64.86
50349;BME280;36250;48.740;22.174;2023-04-12T00:04:36;99562.69;;;10.33;64.73
50349;BME280;36250;48.740;22.174;2023-04-12T00:07:02;99555.31;;;10.29;63.84
50349;BME280;36250;48.740;22.174;2023-04-12T00:09:28;99558.03;;;10.29;63.68
50349;BME280;36250;48.740;22.174;2023-04-12T00:11:54;99572.44;;;10.24;63.37
50349;BME280;36250;48.740;22.174;2023-04-12T00:14:21;99563.66;;;10.17;63.92
50349;BME280;36250;48.740;22.174;2023-04-12T00:16:46;99560.38;;;10.15;63.85
50349;BME280;36250;48.740;22.174;2023-04-12T00:19:11;99550.84;;;10.13;64.42
50349;BME280;36250;48.740;22.174;2023-04-12T00:21:37;99558.16;;;10.07;64.38
50349;BME280;36250;48.740;22.174;2023-04-12T00:24:02;99562.19;;;10.00;64.18
50349;BME280;36250;48.740;22.174;2023-04-12T00:26:27;99549.91;;;9.92;64.51
50349;BME280;36250;48.740;22.174;2023-04-12T00:28:53;99542.50;;;9.82;65.10
50349;BME280;36250;48.740;22.174;2023-04-12T00:31:18;99542.72;;;9.81;64.96
50349;BME280;36250;48.740;22.174;2023-04-12T00:33:43;99533.19;;;9.78;64.46
50349;BME280;36250;48.740;22.174;2023-04-12T00:36:09;99535.88;;;9.73;64.87
50349;BME280;36250;48.740;22.174;2023-04-12T00:38:34;99531.00;;;9.70;65.38
50349;BME280;36250;48.740;22.174;2023-04-12T00:41:00;99527.13;;;9.66;65.02
50349;BME280;36250;48.740;22.174;2023-04-12T00:43:25;99534.69;;;9.59;65.52
50349;BME280;36250;48.740;22.174;2023-04-12T00:45:53;99535.75;;;9.53;66.25
50349;BME280;36250;48.740;22.174;2023-04-12T00:48:21;99531.34;;;9.47;66.31
50349;BME280;36250;48.740;22.174;2023-04-12T00:50:47;99534.56;;;9.44;66.10
50349;BME280;36250;48.740;22.174;2023-04-12T00:53:13;99531.06;;;9.44;66.44
50349;BME280;36250;48.740;22.174;2023-04-12T00:55:43;99522.31;;;9.42;66.53
50349;BME280;36250;48.740;22.174;2023-04-12T00:58:09;99531.25;;;9.37;66.85
50349;BME280;36250;48.740;22.174;2023-04-12T01:00:34;99518.44;;;9.33;66.87
50349;BME280;36250;48.740;22.174;2023-04-12T01:03:00;99532.34;;;9.36;66.76
50349;BME280;36250;48.740;22.174;2023-04-12T01:05:27;99532.59;;;9.35;66.74
50349;BME280;36250;48.740;22.174;2023-04-12T01:08:10;99531.25;;;9.37;67.48
50349;BME280;36250;48.740;22.174;2023-04-12T01:10:44;99529.38;;;9.38;67.17
50349;BME280;36250;48.740;22.174;2023-04-12T01:13:28;99531.84;;;9.44;67.12
50349;BME280;36250;48.740;22.174;2023-04-12T01:16:20;99532.69;;;9.45;67.53
50349;BME280;36250;48.740;22.174;2023-04-12T01:18:50;99530.78;;;9.45;67.78
50349;BME280;36250;48.740;22.174;2023-04-12T01:21:39;99527.00;;;9.46;67.78
50349;BME280;36250;48.740;22.174;2023-04-12T01:24:45;99530.47;;;9.42;67.27
50349;BME280;36250;48.740;22.174;2023-04-12T01:27:48;99528.03;;;9.40;67.70
50349;BME280;36250;48.740;22.174;2023-04-12T01:30:15;99519.88;;;9.40;67.64
50349;BME280;36250;48.740;22.174;2023-04-12T01:32:44;99523.69;;;9.44;67.46
50349;BME280;36250;48.740;22.174;2023-04-12T01:35:12;99530.78;;;9.45;67.32
50349;BME280;36250;48.740;22.174;2023-04-12T01:37:39;99531.84;;;9.44;67.86
50349;BME280;36250;48.740;22.174;2023-04-12T01:40:06;99530.47;;;9.42;67.32
50349;BME280;36250;48.740;22.174;2023-04-12T01:42:33;99529.13;;;9.44;67.39
50349;BME280;36250;48.740;22.174;2023-04-12T01:44:59;99532.69;;;9.45;67.19
50349;BME280;36250;48.740;22.174;2023-04-12T01:47:24;99534.31;;;9.46;67.35
50349;BME280;36250;48.740;22.174;2023-04-12T01:50:24;99544.38;;;9.45;67.43
50349;BME280;36250;48.740;22.174;2023-04-12T01:52:56;99539.94;;;9.39;67.11
50349;BME280;36250;48.740;22.174;2023-04-12T01:55:29;99534.25;;;9.36;67.00
50349;BME280;36250;48.740;22.174;2023-04-12T01:57:55;99545.16;;;9.41;66.69
50349;BME280;36250;48.740;22.174;2023-04-12T02:00:22;99539.72;;;9.41;66.56
50349;BME280;36250;48.740;22.174;2023-04-12T02:02:48;99542.72;;;9.44;66.87
50349;BME280;36250;48.740;22.174;2023-04-12T02:05:13;99544.38;;;9.45;66.46
50349;BME280;36250;48.740;22.174;2023-04-12T02:07:40;99546.53;;;9.43;66.58
50349;BME280;36250;48.740;22.174;2023-04-12T02:10:06;99543.25;;;9.41;67.13
50349;BME280;36250;48.740;22.174;2023-04-12T02:12:31;99542.66;;;9.39;66.95
50349;BME280;36250;48.740;22.174;2023-04-12T02:14:57;99542.13;;;9.37;66.23
50349;BME280;36250;48.740;22.174;2023-04-12T02:17:22;99546.22;;;9.40;66.76
50349;BME280;36250;48.740;22.174;2023-04-12T02:19:47;99539.66;;;9.36;65.74
50349;BME280;36250;48.740;22.174;2023-04-12T02:22:13;99546.47;;;9.38;65.19
50349;BME280;36250;48.740;22.174;2023-04-12T02:24:38;99544.84;;;9.37;65.32
50349;BME280;36250;48.740;22.174;2023-04-12T02:27:04;99546.16;;;9.35;65.36
50349;BME280;36250;48.740;22.174;2023-04-12T02:29:30;99554.84;;;9.32;65.37
50349;BME280;36250;48.740;22.174;2023-04-12T02:31:55;99547.44;;;9.27;65.53
50349;BME280;36250;48.740;22.174;2023-04-12T02:34:20;99551.25;;;9.26;65.50
50349;BME280;36250;48.740;22.174;2023-04-12T02:36:47;99549.31;;;9.21;65.54
50349;BME280;36250;48.740;22.174;2023-04-12T02:39:13;99556.88;;;9.19;65.07
50349;BME280;36250;48.740;22.174;2023-04-12T02:41:38;99549.56;;;9.20;65.05
50349;BME280;36250;48.740;22.174;2023-04-12T02:44:04;99551.78;;;9.23;65.12
50349;BME280;36250;48.740;22.174;2023-04-12T02:46:29;99558.25;;;9.22;64.98
50349;BME280;36250;48.740;22.174;2023-04-12T02:48:55;99557.72;;;9.20;64.21
50349;BME280;36250;48.740;22.174;2023-04-12T02:51:20;99551.78;;;9.23;64.22
50349;BME280;36250;48.740;22.174;2023-04-12T02:53:45;99557.19;;;9.23;63.66
50349;BME280;36250;48.740;22.174;2023-04-12T02:56:11;99552.31;;;9.25;64.04
50349;BME280;36250;48.740;22.174;2023-04-12T02:58:38;99553.66;;;9.22;63.90
50349;BME280;36250;48.740;22.174;2023-04-12T03:01:04;99553.09;;;9.20;63.86
50349;BME280;36250;48.740;22.174;2023-04-12T03:03:32;99554.75;;;9.21;63.49
50349;BME280;36250;48.740;22.174;2023-04-12T03:05:58;99552.28;;;9.20;63.76
50349;BME280;36250;48.740;22.174;2023-04-12T03:08:23;99554.72;;;9.16;64.09
50349;BME280;36250;48.740;22.174;2023-04-12T03:10:49;99556.88;;;9.14;63.65
50349;BME280;36250;48.740;22.174;2023-04-12T03:13:14;99546.78;;;9.15;63.89
50349;BME280;36250;48.740;22.174;2023-04-12T03:15:40;99553.00;;;9.10;64.08
50349;BME280;36250;48.740;22.174;2023-04-12T03:18:08;99552.72;;;9.07;64.23
50349;BME280;36250;48.740;22.174;2023-04-12T03:20:33;99547.41;;;8.95;64.06
50349;BME280;36250;48.740;22.174;2023-04-12T03:22:59;99552.06;;;9.00;64.14
50349;BME280;36250;48.740;22.174;2023-04-12T03:25:24;99546.63;;;8.95;64.19
50349;BME280;36250;48.740;22.174;2023-04-12T03:27:49;99557.97;;;8.92;64.10
50349;BME280;36250;48.740;22.174;2023-04-12T03:30:15;99551.09;;;8.84;64.10
50349;BME280;36250;48.740;22.174;2023-04-12T03:32:41;99557.84;;;8.82;64.30
50349;BME280;36250;48.740;22.174;2023-04-12T03:35:07;99563.78;;;8.79;64.31
50349;BME280;36250;48.740;22.174;2023-04-12T03:37:33;99562.41;;;8.76;64.59
50349;BME280;36250;48.740;22.174;2023-04-12T03:39:59;99574.91;;;8.77;64.28
50349;BME280;36250;48.740;22.174;2023-04-12T03:42:26;99570.75;;;8.70;64.31
50349;BME280;36250;48.740;22.174;2023-04-12T03:44:51;99587.59;;;8.72;64.55
50349;BME280;36250;48.740;22.174;2023-04-12T03:47:17;99581.09;;;8.73;64.50
50349;BME280;36250;48.740;22.174;2023-04-12T03:49:43;99568.03;;;8.70;64.35
50349;BME280;36250;48.740;22.174;2023-04-12T03:52:09;99566.25;;;8.58;64.79
50349;BME280;36250;48.740;22.174;2023-04-12T03:54:34;99584.19;;;8.59;64.56
50349;BME280;36250;48.740;22.174;2023-04-12T03:57:00;99579.25;;;8.56;64.99
50349;BME280;36250;48.740;22.174;2023-04-12T03:59:26;99590.38;;;8.55;65.22
50349;BME280;36250;48.740;22.174;2023-04-12T04:01:52;99599.19;;;8.45;65.36
50349;BME280;36250;48.740;22.174;2023-04-12T04:04:17;99594.25;;;8.42;65.39
50349;BME280;36250;48.740;22.174;2023-04-12T04:06:43;99603.53;;;8.46;65.41
50349;BME280;36250;48.740;22.174;2023-04-12T04:09:08;99605.69;;;8.44;65.29
50349;BME280;36250;48.740;22.174;2023-04-12T04:11:34;99601.56;;;8.42;65.47
50349;BME280;36250;48.740;22.174;2023-04-12T04:13:59;99597.97;;;8.36;65.73
50349;BME280;36250;48.740;22.174;2023-04-12T04:16:24;99611.53;;;8.36;65.90
50349;BME280;36250;48.740;22.174;2023-04-12T04:18:49;99610.47;;;8.37;65.85
50349;BME280;36250;48.740;22.174;2023-04-12T04:21:15;99609.41;;;8.38;66.00
50349;BME280;36250;48.740;22.174;2023-04-12T04:23:40;99610.19;;;8.39;66.23
50349;BME280;36250;48.740;22.174;2023-04-12T04:26:09;99616.78;;;8.43;65.47
50349;BME280;36250;48.740;22.174;2023-04-12T04:28:39;99617.69;;;8.48;65.53
50349;BME280;36250;48.740;22.174;2023-04-12T04:31:12;99621.53;;;8.52;65.48
50349;BME280;36250;48.740;22.174;2023-04-12T04:33:37;99624.31;;;8.57;65.37
50349;BME280;36250;48.740;22.174;2023-04-12T04:36:04;99625.94;;;8.58;65.41
50349;BME280;36250;48.740;22.174;2023-04-12T04:38:30;99633.63;;;8.67;65.22
50349;BME280;36250;48.740;22.174;2023-04-12T04:41:00;99627.03;;;8.79;64.76
50349;BME280;36250;48.740;22.174;2023-04-12T04:43:29;99619.78;;;8.85;64.54
50349;BME280;36250;48.740;22.174;2023-04-12T04:45:56;99625.81;;;8.92;64.77
50349;BME280;36250;48.740;22.174;2023-04-12T04:48:22;99628.28;;;8.93;64.97
50349;BME280;36250;48.740;22.174;2023-04-12T04:50:48;99629.66;;;8.96;64.80
50349;BME280;36250;48.740;22.174;2023-04-12T04:53:16;99626.44;;;8.99;64.53
50349;BME280;36250;48.740;22.174;2023-04-12T04:55:42;99621.03;;;8.99;64.21
50349;BME280;36250;48.740;22.174;2023-04-12T04:58:08;99638.94;;;9.00;64.19
50349;BME280;36250;48.740;22.174;2023-04-12T05:00:33;99630.06;;;9.04;63.59
50349;BME280;36250;48.740;22.174;2023-04-12T05:03:00;99634.72;;;9.09;64.44
50349;BME280;36250;48.740;22.174;2023-04-12T05:05:27;99633.94;;;9.13;63.89
50349;BME280;36250;48.740;22.174;2023-04-12T05:07:53;99630.47;;;9.18;63.63
50349;BME280;36250;48.740;22.174;2023-04-12T05:10:19;99636.88;;;9.34;63.35
50349;BME280;36250;48.740;22.174;2023-04-12T05:12:44;99635.06;;;9.44;62.48
50349;BME280;36250;48.740;22.174;2023-04-12T05:15:10;99629.84;;;9.64;63.06
50349;BME280;36250;48.740;22.174;2023-04-12T05:17:35;99620.19;;;9.78;62.00
50349;BME280;36250;48.740;22.174;2023-04-12T05:20:01;99628.38;;;9.83;61.26
50349;BME280;36250;48.740;22.174;2023-04-12T05:22:26;99625.78;;;9.99;61.28
50349;BME280;36250;48.740;22.174;2023-04-12T05:24:53;99632.09;;;10.04;60.42
50349;BME280;36250;48.740;22.174;2023-04-12T05:27:20;99616.06;;;10.08;60.55
50349;BME280;36250;48.740;22.174;2023-04-12T05:29:46;99621.56;;;10.13;59.79
50349;BME280;36250;48.740;22.174;2023-04-12T05:32:11;99619.22;;;10.26;60.83
50349;BME280;36250;48.740;22.174;2023-04-12T05:34:37;99619.75;;;10.23;60.40
50349;BME280;36250;48.740;22.174;2023-04-12T05:37:03;99606.41;;;10.22;60.48
50349;BME280;36250;48.740;22.174;2023-04-12T05:39:28;99606.13;;;10.23;59.47
50349;BME280;36250;48.740;22.174;2023-04-12T05:41:54;99610.78;;;10.28;59.48
50349;BME280;36250;48.740;22.174;2023-04-12T05:44:19;99609.13;;;10.22;59.01
50349;BME280;36250;48.740;22.174;2023-04-12T05:46:44;99609.41;;;10.25;59.27
50349;BME280;36250;48.740;22.174;2023-04-12T05:49:10;99617.00;;;10.23;59.52
50349;BME280;36250;48.740;22.174;2023-04-12T05:51:36;99611.84;;;10.22;60.54
50349;BME280;36250;48.740;22.174;2023-04-12T05:54:01;99606.41;;;10.22;59.63
50349;BME280;36250;48.740;22.174;2023-04-12T05:56:30;99610.16;;;10.16;60.15
50349;BME280;36250;48.740;22.174;2023-04-12T05:58:55;99598.53;;;10.25;59.52
50349;BME280;36250;48.740;22.174;2023-04-12T06:01:21;99609.66;;;10.19;60.29
50349;BME280;36250;48.740;22.174;2023-04-12T06:03:47;99600.78;;;10.02;59.53
50349;BME280;36250;48.740;22.174;2023-04-12T06:06:12;99606.56;;;10.10;60.94
50349;BME280;36250;48.740;22.174;2023-04-12T06:08:37;99609.63;;;10.14;60.34
50349;BME280;36250;48.740;22.174;2023-04-12T06:11:04;99615.69;;;10.26;60.89
50349;BME280;36250;48.740;22.174;2023-04-12T06:13:29;99613.88;;;10.41;59.76
50349;BME280;36250;48.740;22.174;2023-04-12T06:15:54;99612.25;;;10.45;59.44
50349;BME280;36250;48.740;22.174;2023-04-12T06:18:20;99607.38;;;10.47;59.66
50349;BME280;36250;48.740;22.174;2023-04-12T06:20:45;99616.34;;;10.48;58.96
50349;BME280;36250;48.740;22.174;2023-04-12T06:23:10;99617.97;;;10.49;58.94
50349;BME280;36250;48.740;22.174;2023-04-12T06:25:36;99614.91;;;10.35;59.15
50349;BME280;36250;48.740;22.174;2023-04-12T06:28:01;99609.41;;;10.25;59.45
50349;BME280;36250;48.740;22.174;2023-04-12T06:30:27;99613.25;;;10.34;60.69
50349;BME280;36250;48.740;22.174;2023-04-12T06:32:52;99615.22;;;10.39;59.69
50349;BME280;36250;48.740;22.174;2023-04-12T06:35:18;99616.34;;;10.48;59.88
50349;BME280;36250;48.740;22.174;2023-04-12T06:37:44;99609.03;;;10.48;59.79
50349;BME280;36250;48.740;22.174;2023-04-12T06:40:09;99605.78;;;10.56;59.54
50349;BME280;36250;48.740;22.174;2023-04-12T06:42:36;99589.22;;;10.63;59.34
50349;BME280;36250;48.740;22.174;2023-04-12T06:45:02;99610.13;;;10.52;58.55
50349;BME280;36250;48.740;22.174;2023-04-12T06:47:28;99591.63;;;10.54;58.30
50349;BME280;36250;48.740;22.174;2023-04-12T06:49:54;99608.19;;;10.48;59.03
50349;BME280;36250;48.740;22.174;2023-04-12T06:52:23;99610.38;;;10.46;59.78
50349;BME280;36250;48.740;22.174;2023-04-12T06:54:49;99609.25;;;10.47;59.48
50349;BME280;36250;48.740;22.174;2023-04-12T06:57:15;99614.38;;;10.33;59.66
50349;BME280;36250;48.740;22.174;2023-04-12T06:59:40;99624.41;;;10.33;60.10
50349;BME280;36250;48.740;22.174;2023-04-12T07:02:06;99607.03;;;10.34;60.34
50349;BME280;36250;48.740;22.174;2023-04-12T07:04:31;99619.06;;;10.48;59.44
50349;BME280;36250;48.740;22.174;2023-04-12T07:06:57;99621.25;;;10.46;59.38
50349;BME280;36250;48.740;22.174;2023-04-12T07:09:22;99632.16;;;10.51;58.33
50349;BME280;36250;48.740;22.174;2023-04-12T07:11:48;99631.00;;;10.42;58.27
50349;BME280;36250;48.740;22.174;2023-04-12T07:14:13;99629.72;;;10.54;59.01
50349;BME280;36250;48.740;22.174;2023-04-12T07:16:38;99630.59;;;10.65;57.96
50349;BME280;36250;48.740;22.174;2023-04-12T07:19:04;99634.16;;;10.71;58.46
50349;BME280;36250;48.740;22.174;2023-04-12T07:21:29;99635.03;;;10.81;57.83
50349;BME280;36250;48.740;22.174;2023-04-12T07:23:54;99644.34;;;10.90;57.80
50349;BME280;36250;48.740;22.174;2023-04-12T07:26:20;99642.22;;;11.02;57.65
50349;BME280;36250;48.740;22.174;2023-04-12T07:28:45;99644.38;;;11.05;57.07
50349;BME280;36250;48.740;22.174;2023-04-12T07:31:11;99646.59;;;11.18;57.43
50349;BME280;36250;48.740;22.174;2023-04-12T07:33:36;99646.06;;;11.16;57.23
50349;BME280;36250;48.740;22.174;2023-04-12T07:36:03;99646.91;;;11.22;57.40
50349;BME280;36250;48.740;22.174;2023-04-12T07:38:29;99634.66;;;11.25;56.55
50349;BME280;36250;48.740;22.174;2023-04-12T07:40:55;99648.00;;;11.26;57.02
50349;BME280;36250;48.740;22.174;2023-04-12T07:43:21;99646.09;;;11.21;56.29
50349;BME280;36250;48.740;22.174;2023-04-12T07:45:46;99644.44;;;11.26;56.40
50349;BME280;36250;48.740;22.174;2023-04-12T07:48:12;99651.53;;;11.27;56.03
50349;BME280;36250;48.740;22.174;2023-04-12T07:50:37;99650.75;;;11.36;56.61
50349;BME280;36250;48.740;22.174;2023-04-12T07:53:23;99645.59;;;11.55;57.09
50349;BME280;36250;48.740;22.174;2023-04-12T07:55:49;99645.91;;;11.58;57.25
50349;BME280;36250;48.740;22.174;2023-04-12T07:58:16;99645.31;;;11.36;56.06
50349;BME280;36250;48.740;22.174;2023-04-12T08:00:42;99652.94;;;11.49;56.67
50349;BME280;36250;48.740;22.174;2023-04-12T08:03:09;99640.97;;;11.50;55.70
50349;BME280;36250;48.740;22.174;2023-04-12T08:05:35;99658.66;;;11.38;55.30
50349;BME280;36250;48.740;22.174;2023-04-12T08:08:00;99644.47;;;11.36;55.85
50349;BME280;36250;48.740;22.174;2023-04-12T08:10:26;99640.13;;;11.50;55.32
50349;BME280;36250;48.740;22.174;2023-04-12T08:12:51;99643.22;;;11.68;55.50
50349;BME280;36250;48.740;22.174;2023-04-12T08:15:16;99643.22;;;11.99;55.42
50349;BME280;36250;48.740;22.174;2023-04-12T08:17:42;99633.66;;;12.11;55.29
50349;BME280;36250;48.740;22.174;2023-04-12T08:20:08;99637.22;;;12.27;53.97
50349;BME280;36250;48.740;22.174;2023-04-12T08:22:34;99641.03;;;12.21;54.43
50349;BME280;36250;48.740;22.174;2023-04-12T08:25:00;99630.13;;;12.11;54.61
50349;BME280;36250;48.740;22.174;2023-04-12T08:27:26;99627.13;;;12.27;55.61
50349;BME280;36250;48.740;22.174;2023-04-12T08:29:51;99634.72;;;12.35;53.97
50349;BME280;36250;48.740;22.174;2023-04-12T08:32:17;99637.22;;;12.32;54.36
50349;BME280;36250;48.740;22.174;2023-04-12T08:34:42;99632.56;;;12.27;54.10
50349;BME280;36250;48.740;22.174;2023-04-12T08:37:07;99630.16;;;11.96;54.81
50349;BME280;36250;48.740;22.174;2023-04-12T08:39:33;99640.22;;;11.75;55.16
50349;BME280;36250;48.740;22.174;2023-04-12T08:41:59;99636.94;;;11.73;55.81
50349;BME280;36250;48.740;22.174;2023-04-12T08:44:36;99629.03;;;11.71;56.22
50349;BME280;36250;48.740;22.174;2023-04-12T08:47:03;99638.03;;;11.82;56.32
50349;BME280;36250;48.740;22.174;2023-04-12T08:49:32;99629.88;;;12.02;55.55
50349;BME280;36250;48.740;22.174;2023-04-12T08:52:06;99623.81;;;12.25;55.12
50349;BME280;36250;48.740;22.174;2023-04-12T08:54:35;99612.63;;;12.47;54.96
50349;BME280;36250;48.740;22.174;2023-04-12T08:57:03;99622.06;;;12.75;54.35
50349;BME280;36250;48.740;22.174;2023-04-12T08:59:31;99620.34;;;12.94;52.85
50349;BME280;36250;48.740;22.174;2023-04-12T09:01:57;99617.38;;;12.90;53.58
50349;BME280;36250;48.740;22.174;2023-04-12T09:04:24;99619.00;;;12.86;54.25
50349;BME280;36250;48.740;22.174;2023-04-12T09:06:50;99618.72;;;12.93;53.51
50349;BME280;36250;48.740;22.174;2023-04-12T09:09:16;99612.53;;;12.72;53.20
50349;BME280;36250;48.740;22.174;2023-04-12T09:11:41;99623.19;;;12.74;54.50
50349;BME280;36250;48.740;22.174;2023-04-12T09:14:23;99625.25;;;13.07;53.79
50349;BME280;36250;48.740;22.174;2023-04-12T09:16:49;99621.44;;;13.08;52.71
50349;BME280;36250;48.740;22.174;2023-04-12T09:19:14;99608.84;;;13.02;52.68
50349;BME280;36250;48.740;22.174;2023-04-12T09:21:54;99618.63;;;13.18;53.51
50349;BME280;36250;48.740;22.174;2023-04-12T09:24:20;99611.38;;;13.47;52.56
50349;BME280;36250;48.740;22.174;2023-04-12T09:29:27;99608.50;;;13.62;52.14
50349;BME280;36250;48.740;22.174;2023-04-12T09:34:20;99627.72;;;13.52;51.21
50349;BME280;36250;48.740;22.174;2023-04-12T09:36:46;99606.06;;;13.22;52.38
50349;BME280;36250;48.740;22.174;2023-04-12T09:39:11;99611.47;;;13.71;51.48
50349;BME280;36250;48.740;22.174;2023-04-12T09:41:36;99620.16;;;13.78;51.98
50349;BME280;36250;48.740;22.174;2023-04-12T09:44:02;99610.25;;;13.48;52.27
50349;BME280;36250;48.740;22.174;2023-04-12T09:46:28;99619.78;;;13.07;52.28
50349;BME280;36250;48.740;22.174;2023-04-12T09:48:55;99614.59;;;13.10;53.14
50349;BME280;36250;48.740;22.174;2023-04-12T09:51:30;99608.31;;;13.00;52.90
50349;BME280;36250;48.740;22.174;2023-04-12T09:54:04;99606.13;;;13.07;53.50
50349;BME280;36250;48.740;22.174;2023-04-12T09:56:33;99611.84;;;13.05;53.84
50349;BME280;36250;48.740;22.174;2023-04-12T09:59:04;99613.47;;;13.11;53.60
50349;BME280;36250;48.740;22.174;2023-04-12T10:01:38;99617.06;;;12.97;53.62
50349;BME280;36250;48.740;22.174;2023-04-12T10:04:07;99613.34;;;13.37;53.81
50349;BME280;36250;48.740;22.174;2023-04-12T10:06:33;99619.34;;;13.77;52.96
50349;BME280;36250;48.740;22.174;2023-04-12T10:09:02;99630.06;;;13.74;52.11
50349;BME280;36250;48.740;22.174;2023-04-12T10:11:28;99626.03;;;13.61;52.96
50349;BME280;36250;48.740;22.174;2023-04-12T10:13:55;99627.28;;;13.35;52.14
50349;BME280;36250;48.740;22.174;2023-04-12T10:16:21;99631.13;;;13.34;52.39
50349;BME280;36250;48.740;22.174;2023-04-12T10:18:47;99627.38;;;13.25;52.83
50349;BME280;36250;48.740;22.174;2023-04-12T10:21:14;99630.06;;;13.30;53.57
50349;BME280;36250;48.740;22.174;2023-04-12T10:23:43;99622.25;;;13.52;53.11
50349;BME280;36250;48.740;22.174;2023-04-12T10:26:08;99648.44;;;13.14;52.42
50349;BME280;36250;48.740;22.174;2023-04-12T10:28:34;99629.38;;;12.94;53.90
50349;BME280;36250;48.740;22.174;2023-04-12T10:31:26;99640.03;;;12.96;54.23
50349;BME280;36250;48.740;22.174;2023-04-12T10:33:53;99625.16;;;13.27;54.39
50349;BME280;36250;48.740;22.174;2023-04-12T10:36:19;99626.59;;;13.14;52.92
50349;BME280;36250;48.740;22.174;2023-04-12T10:38:46;99624.78;;;12.85;53.47
50349;BME280;36250;48.740;22.174;2023-04-12T10:43:46;99633.03;;;12.65;53.55
50349;BME280;36250;48.740;22.174;2023-04-12T10:49:08;99628.53;;;12.99;53.82
50349;BME280;36250;48.740;22.174;2023-04-12T10:51:33;99631.78;;;13.01;53.24
50349;BME280;36250;48.740;22.174;2023-04-12T10:56:47;99625.72;;;13.24;53.37
50349;BME280;36250;48.740;22.174;2023-04-12T10:59:13;99615.22;;;13.41;52.46
50349;BME280;36250;48.740;22.174;2023-04-12T11:01:41;99629.25;;;13.30;52.52
50349;BME280;36250;48.740;22.174;2023-04-12T11:04:16;99626.28;;;13.21;53.00
50349;BME280;36250;48.740;22.174;2023-04-12T11:09:29;99624.44;;;13.06;53.86
50349;BME280;36250;48.740;22.174;2023-04-12T11:14:44;99619.31;;;13.44;53.81
50349;BME280;36250;48.740;22.174;2023-04-12T11:19:43;99622.53;;;13.51;52.89
50349;BME280;36250;48.740;22.174;2023-04-12T11:22:12;99624.84;;;14.06;51.82
50349;BME280;36250;48.740;22.174;2023-04-12T11:27:04;99622.22;;;13.96;50.86
50349;BME280;36250;48.740;22.174;2023-04-12T11:29:29;99621.94;;;13.98;51.16
50349;BME280;36250;48.740;22.174;2023-04-12T11:31:57;99620.72;;;13.75;50.77
50349;BME280;36250;48.740;22.174;2023-04-12T11:34:23;99610.53;;;13.86;51.23
50349;BME280;36250;48.740;22.174;2023-04-12T11:36:51;99620.66;;;13.85;52.47
50349;BME280;36250;48.740;22.174;2023-04-12T11:39:17;99620.81;;;13.99;51.90
50349;BME280;36250;48.740;22.174;2023-04-12T11:41:47;99617.81;;;13.66;52.02
50349;BME280;36250;48.740;22.174;2023-04-12T11:44:13;99625.97;;;13.71;53.10
50349;BME280;36250;48.740;22.174;2023-04-12T11:46:40;99615.25;;;14.09;51.43
50349;BME280;36250;48.740;22.174;2023-04-12T11:49:05;99613.19;;;13.96;51.80
50349;BME280;36250;48.740;22.174;2023-04-12T11:51:30;99609.06;;;14.32;51.22
50349;BME280;36250;48.740;22.174;2023-04-12T11:53:56;99605.13;;;14.38;48.92
50349;BME280;36250;48.740;22.174;2023-04-12T11:56:23;99599.22;;;14.55;50.69
50349;BME280;36250;48.740;22.174;2023-04-12T11:58:49;99598.03;;;14.84;50.14
50349;BME280;36250;48.740;22.174;2023-04-12T12:01:16;99602.81;;;14.97;49.92
50349;BME280;36250;48.740;22.174;2023-04-12T12:03:43;99600.19;;;15.11;49.66
50349;BME280;36250;48.740;22.174;2023-04-12T12:06:09;99591.72;;;15.26;48.42
50349;BME280;36250;48.740;22.174;2023-04-12T12:08:35;99602.03;;;15.16;49.68
50349;BME280;36250;48.740;22.174;2023-04-12T12:11:01;99593.44;;;14.80;49.60
50349;BME280;36250;48.740;22.174;2023-04-12T12:13:51;99588.25;;;14.78;49.86
50349;BME280;36250;48.740;22.174;2023-04-12T12:16:19;99585.34;;;14.93;49.05
50349;BME280;36250;48.740;22.174;2023-04-12T12:18:48;99595.28;;;15.08;49.98
50349;BME280;36250;48.740;22.174;2023-04-12T12:21:14;99591.72;;;15.26;49.43
50349;BME280;36250;48.740;22.174;2023-04-12T12:23:43;99578.91;;;15.22;48.16
50349;BME280;36250;48.740;22.174;2023-04-12T12:26:18;99574.84;;;15.19;47.54
50349;BME280;36250;48.740;22.174;2023-04-12T12:28:49;99580.59;;;14.99;48.38
50349;BME280;36250;48.740;22.174;2023-04-12T12:31:24;99582.47;;;14.80;49.69
50349;BME280;36250;48.740;22.174;2023-04-12T12:33:55;99577.66;;;14.48;49.50
50349;BME280;36250;48.740;22.174;2023-04-12T12:36:29;99574.81;;;14.58;50.42
50349;BME280;36250;48.740;22.174;2023-04-12T12:39:02;99581.91;;;14.59;49.48
50349;BME280;36250;48.740;22.174;2023-04-12T12:41:30;99580.75;;;14.65;50.12
50349;BME280;36250;48.740;22.174;2023-04-12T12:43:56;99575.25;;;14.89;49.86
50349;BME280;36250;48.740;22.174;2023-04-12T12:46:21;99577.13;;;14.93;49.65
50349;BME280;36250;48.740;22.174;2023-04-12T12:48:47;99577.00;;;14.80;49.40
50349;BME280;36250;48.740;22.174;2023-04-12T12:51:14;99583.88;;;14.77;49.26
50349;BME280;36250;48.740;22.174;2023-04-12T12:53:42;99569.78;;;15.07;49.08
50349;BME280;36250;48.740;22.174;2023-04-12T12:56:08;99563.56;;;15.39;48.28
50349;BME280;36250;48.740;22.174;2023-04-12T12:58:34;99562.75;;;15.39;48.15
50349;BME280;36250;48.740;22.174;2023-04-12T13:01:00;99559.38;;;15.28;49.73
50349;BME280;36250;48.740;22.174;2023-04-12T13:03:25;99546.44;;;15.29;48.60
50349;BME280;36250;48.740;22.174;2023-04-12T13:05:51;99556.63;;;15.28;48.82
50349;BME280;36250;48.740;22.174;2023-04-12T13:08:16;99557.06;;;15.17;48.65
50349;BME280;36250;48.740;22.174;2023-04-12T13:10:42;99553.13;;;15.23;48.60
50349;BME280;36250;48.740;22.174;2023-04-12T13:13:07;99548.16;;;15.25;47.21
50349;BME280;36250;48.740;22.174;2023-04-12T13:15:33;99547.13;;;15.58;47.65
50349;BME280;36250;48.740;22.174;2023-04-12T13:17:58;99552.28;;;16.10;46.29